Time;durP1;ratioP1;P1;durP2;ratioP2;P2;SDS_P1;SDS_P2;PMS_P1;PMS_P2;Temp;Humidity;BMP_temperature;BMP_pressure;BME280_temperature;BME280_humidity;BME280_pressure;Samples;Min_cycle;Max_cycle;Signal;HPM_P1;HPM_P2
2021/12/05 00:18:45;;;;;;;0.00;0.00;;;;;;;;;;1720665;28;20588;-67
2021/12/05 00:20:09;;;;;;;0.08;0.08;;;;;;;;;;1719817;28;20768;-67
2021/12/05 00:22:16;;;;;;;0.00;0.00;;;;;;;;;;1724173;28;20215;-66
2021/12/05 00:23:12;;;;;;;0.00;0.00;;;;;;;;;;1725652;28;20201;-66
2021/12/05 00:24:08;;;;;;;0.03;0.03;;;;;;;;;;1724867;28;20184;-67
2021/12/05 00:25:03;;;;;;;0.00;0.00;;;;;;;;;;1726181;28;20634;-65
2021/12/05 00:25:58;;;;;;;0.00;0.00;;;;;;;;;;1725355;28;20249;-68
2021/12/05 00:26:56;;;;;;;0.00;0.00;;;;;;;;;;1725624;28;20702;-65
2021/12/05 00:27:56;;;;;;;0.00;0.00;;;;;;;;;;1725587;28;20199;-67
2021/12/05 00:30:36;;;;;;;0.00;0.00;;;;;;;;;;1718265;28;20233;-67
2021/12/05 00:32:50;;;;;;;0.00;0.00;;;;;;;;;;1704072;28;20206;-65
2021/12/05 00:33:57;;;;;;;0.00;0.00;;;;;;;;;;1714928;28;20208;-66
2021/12/05 00:49:49;;;;;;;0.00;0.00;;;;;;;;;;1725299;28;20207;-68
2021/12/05 00:52:16;;;;;;;0.00;0.00;;;;;;;;;;1725353;28;20199;-66
2021/12/05 00:56:11;;;;;;;0.10;0.10;;;;;;;;;;1752807;27;20522;-66
2021/12/05 00:59:55;;;;;;;0.00;0.00;;;;;;;;;;1744727;28;20228;-65
2021/12/05 01:01:09;;;;;;;0.00;0.00;;;;;;;;;;1743337;28;20318;-66
2021/12/05 01:02:18;;;;;;;0.10;0.10;;;;;;;;;;1744311;28;20202;-66
2021/12/05 01:07:05;;;;;;;0.03;0.03;;;;;;;;;;1743824;28;20271;-66
2021/12/05 01:08:12;;;;;;;0.00;0.00;;;;;;;;;;1769225;22;20248;-72
2021/12/05 01:10:49;;;;;;;0.00;0.00;;;;;;;;;;1728180;28;20198;-72
2021/12/05 01:12:00;;;;;;;0.00;0.00;;;;;;;;;;1723247;28;20209;-73
2021/12/05 01:13:15;;;;;;;0.08;0.08;;;;;;;;;;1722335;28;20218;-73
2021/12/05 01:14:22;;;;;;;0.00;0.00;;;;;;;;;;1723880;28;20208;-73
2021/12/05 01:15:17;;;;;;;0.00;0.00;;;;;;;;;;1723785;28;20217;-73
2021/12/05 01:16:10;;;;;;;0.00;0.00;;;;;;;;;;1725663;28;20792;-73
2021/12/05 01:17:03;;;;;;;0.10;0.10;;;;;;;;;;1737035;28;20195;-73
2021/12/05 01:18:01;;;;;;;0.00;0.00;;;;;;;;;;1736877;28;20203;-72
2021/12/05 01:18:53;;;;;;;0.00;0.00;;;;;;;;;;1737395;28;20246;-72
2021/12/05 01:19:46;;;;;;;0.10;0.10;;;;;;;;;;1738141;28;20195;-72
2021/12/05 01:20:40;;;;;;;0.05;0.05;;;;;;;;;;1737519;28;20230;-73
2021/12/05 01:21:32;;;;;;;0.10;0.10;;;;;;;;;;1735721;28;20268;-73
2021/12/05 01:22:24;;;;;;;0.10;0.10;;;;;;;;;;1737663;28;20202;-73
2021/12/05 01:23:25;;;;;;;0.00;0.00;;;;;;;;;;1737388;28;20307;-73
2021/12/05 01:24:26;;;;;;;0.00;0.00;;;;;;;;;;1738122;28;20309;-73
2021/12/05 01:25:26;;;;;;;0.00;0.00;;;;;;;;;;1738301;28;20318;-73
2021/12/05 01:26:21;;;;;;;0.10;0.10;;;;;;;;;;1737415;28;20230;-73
2021/12/05 01:27:19;;;;;;;0.00;0.00;;;;;;;;;;1737869;28;20196;-73
2021/12/05 01:28:22;;;;;;;0.05;0.05;;;;;;;;;;1737404;28;20629;-73
2021/12/05 01:29:26;;;;;;;0.00;0.00;;;;;;;;;;1734284;28;20211;-73
2021/12/05 01:30:28;;;;;;;0.00;0.00;;;;;;;;;;1737896;28;20217;-73
2021/12/05 01:31:28;;;;;;;0.00;0.00;;;;;;;;;;1737533;28;20227;-73
2021/12/05 01:32:34;;;;;;;0.03;0.03;;;;;;;;;;1737523;28;20932;-73
2021/12/05 01:33:39;;;;;;;0.00;0.00;;;;;;;;;;1737810;28;20372;-73
2021/12/05 01:34:46;;;;;;;0.00;0.00;;;;;;;;;;1737095;28;20211;-73
2021/12/05 01:35:53;;;;;;;0.00;0.00;;;;;;;;;;1736562;28;20219;-74
2021/12/05 01:36:56;;;;;;;0.00;0.00;;;;;;;;;;1737464;28;20310;-73
2021/12/05 01:38:00;;;;;;;0.00;0.00;;;;;;;;;;1738305;28;20602;-73
2021/12/05 01:39:06;;;;;;;0.00;0.00;;;;;;;;;;1737567;28;20616;-73
2021/12/05 01:40:31;;;;;;;0.00;0.00;;;;;;;;;;1737481;28;20198;-73
2021/12/05 01:50:07;;;;;;;0.05;0.05;;;;;;;;;;1755430;28;20205;-74
2021/12/05 01:51:19;;;;;;;0.00;0.00;;;;;;;;;;1746700;28;20295;-74
2021/12/05 01:54:54;;;;;;;0.00;0.00;;;;;;;;;;1743525;28;20280;-74
2021/12/05 01:56:12;;;;;;;0.00;0.00;;;;;;;;;;1743280;28;20614;-74
2021/12/05 01:57:30;;;;;;;0.00;0.00;;;;;;;;;;1744360;28;20490;-74
2021/12/05 01:59:39;;;;;;;0.00;0.00;;;;;;;;;;1742859;28;20496;-74
2021/12/05 02:07:37;;;;;;;0.00;0.00;;;;;;;;;;1735931;28;20214;-74
2021/12/05 02:08:22;;;;;;;0.00;0.00;;;;;;;;;;1743719;28;20262;-74
2021/12/05 02:11:03;;;;;;;0.00;0.00;;;;;;;;;;1739542;28;20535;-73
2021/12/05 02:12:20;;;;;;;0.00;0.00;;;;;;;;;;1744362;28;20632;-73
2021/12/05 02:15:58;;;;;;;0.00;0.00;;;;;;;;;;1743068;28;20567;-74
2021/12/05 02:30:13;;;;;;;0.00;0.00;;;;;;;;;;1744773;28;20276;-74
2021/12/05 02:32:49;;;;;;;0.00;0.00;;;;;;;;;;1733286;28;20540;-74
2021/12/05 02:34:01;;;;;;;0.05;0.05;;;;;;;;;;1741710;28;20199;-74
2021/12/05 02:35:01;;;;;;;0.10;0.10;;;;;;;;;;1743092;28;20198;-74
2021/12/05 02:37:38;;;;;;;0.00;0.00;;;;;;;;;;1759059;27;20546;-71
2021/12/05 02:39:01;;;;;;;0.10;0.10;;;;;;;;;;1757667;28;20278;-71
2021/12/05 02:40:18;;;;;;;0.00;0.00;;;;;;;;;;1758058;28;20548;-71
2021/12/05 02:41:14;;;;;;;0.00;0.00;;;;;;;;;;1723481;28;20287;-71
2021/12/05 02:42:13;;;;;;;0.00;0.00;;;;;;;;;;1726029;28;20218;-71
2021/12/05 02:43:08;;;;;;;0.00;0.00;;;;;;;;;;1724937;28;20622;-71
2021/12/05 02:44:04;;;;;;;0.10;0.10;;;;;;;;;;1724325;28;20283;-71
2021/12/05 02:44:56;;;;;;;0.00;0.00;;;;;;;;;;1730437;28;20203;-71
2021/12/05 02:45:48;;;;;;;0.00;0.00;;;;;;;;;;1723986;28;20301;-71
2021/12/05 02:46:41;;;;;;;0.10;0.10;;;;;;;;;;1724131;28;20279;-70
2021/12/05 02:47:34;;;;;;;0.00;0.00;;;;;;;;;;1727610;28;20265;-72
2021/12/05 02:48:28;;;;;;;0.00;0.00;;;;;;;;;;1729115;28;20200;-72
2021/12/05 02:49:21;;;;;;;0.00;0.00;;;;;;;;;;1724002;28;20201;-73
2021/12/05 02:50:12;;;;;;;0.00;0.00;;;;;;;;;;1725137;28;20661;-73
2021/12/05 02:51:07;;;;;;;0.00;0.00;;;;;;;;;;1723808;28;20311;-73
2021/12/05 02:52:02;;;;;;;0.00;0.00;;;;;;;;;;1724372;28;20596;-73
2021/12/05 02:53:00;;;;;;;0.00;0.00;;;;;;;;;;1723961;28;20676;-74
2021/12/05 02:54:02;;;;;;;0.10;0.10;;;;;;;;;;1724265;28;20212;-74
2021/12/05 02:54:59;;;;;;;0.00;0.00;;;;;;;;;;1727698;28;20487;-74
2021/12/05 02:55:52;;;;;;;0.00;0.00;;;;;;;;;;1723647;28;20268;-74
2021/12/05 02:56:48;;;;;;;0.00;0.00;;;;;;;;;;1725693;28;20219;-73
2021/12/05 02:57:52;;;;;;;0.00;0.00;;;;;;;;;;1728801;28;20203;-74
2021/12/05 02:58:45;;;;;;;0.00;0.00;;;;;;;;;;1727292;28;20259;-74
2021/12/05 02:59:46;;;;;;;0.00;0.00;;;;;;;;;;1724382;28;20580;-73
2021/12/05 03:00:42;;;;;;;0.10;0.10;;;;;;;;;;1723920;28;20199;-71
2021/12/05 03:01:38;;;;;;;0.10;0.10;;;;;;;;;;1728856;28;20738;-72
2021/12/05 03:02:38;;;;;;;0.00;0.00;;;;;;;;;;1727388;28;20283;-72
2021/12/05 03:03:31;;;;;;;0.10;0.10;;;;;;;;;;1728841;28;20654;-71
2021/12/05 03:04:26;;;;;;;0.00;0.00;;;;;;;;;;1723749;28;20208;-71
2021/12/05 03:05:21;;;;;;;0.00;0.00;;;;;;;;;;1725189;28;20296;-71
2021/12/05 03:06:17;;;;;;;0.00;0.00;;;;;;;;;;1729456;28;20235;-71
2021/12/05 03:07:10;;;;;;;0.00;0.00;;;;;;;;;;1730259;28;20195;-71
2021/12/05 03:08:03;;;;;;;0.00;0.00;;;;;;;;;;1724279;28;20616;-71
2021/12/05 03:08:56;;;;;;;0.00;0.00;;;;;;;;;;1729824;28;20212;-71
2021/12/05 03:09:48;;;;;;;0.10;0.10;;;;;;;;;;1731214;28;20207;-72
2021/12/05 03:10:40;;;;;;;0.00;0.00;;;;;;;;;;1731330;28;20219;-71
2021/12/05 03:11:32;;;;;;;0.00;0.00;;;;;;;;;;1737628;28;20203;-71
2021/12/05 03:12:23;;;;;;;0.00;0.00;;;;;;;;;;1737014;28;20664;-71
2021/12/05 03:13:16;;;;;;;0.00;0.00;;;;;;;;;;1737494;28;20210;-71
2021/12/05 03:14:08;;;;;;;0.00;0.00;;;;;;;;;;1737737;28;20632;-71
2021/12/05 03:15:01;;;;;;;0.00;0.00;;;;;;;;;;1737368;28;20207;-72
2021/12/05 03:15:56;;;;;;;0.00;0.00;;;;;;;;;;1737156;28;20231;-72
2021/12/05 03:16:48;;;;;;;0.00;0.00;;;;;;;;;;1736470;28;20261;-72
2021/12/05 03:17:40;;;;;;;0.00;0.00;;;;;;;;;;1735926;28;20234;-72
2021/12/05 03:18:33;;;;;;;0.00;0.00;;;;;;;;;;1733665;28;20227;-72
2021/12/05 03:19:24;;;;;;;0.00;0.00;;;;;;;;;;1734612;28;20481;-72
2021/12/05 03:20:18;;;;;;;0.00;0.00;;;;;;;;;;1734041;28;20260;-72
2021/12/05 03:21:09;;;;;;;0.00;0.00;;;;;;;;;;1737158;28;20227;-72
2021/12/05 03:22:01;;;;;;;0.00;0.00;;;;;;;;;;1735999;28;20626;-72
2021/12/05 03:22:53;;;;;;;0.00;0.00;;;;;;;;;;1737439;28;20652;-72
2021/12/05 03:23:48;;;;;;;0.00;0.00;;;;;;;;;;1736565;28;20636;-72
2021/12/05 03:24:39;;;;;;;0.10;0.10;;;;;;;;;;1738006;28;20198;-72
2021/12/05 03:25:32;;;;;;;0.03;0.03;;;;;;;;;;1735443;28;20195;-72
2021/12/05 03:26:25;;;;;;;0.10;0.10;;;;;;;;;;1737852;28;20203;-72
2021/12/05 03:27:21;;;;;;;0.00;0.00;;;;;;;;;;1736624;28;20541;-72
2021/12/05 03:28:12;;;;;;;0.00;0.00;;;;;;;;;;1736790;28;20663;-72
2021/12/05 03:29:05;;;;;;;0.00;0.00;;;;;;;;;;1737317;28;20298;-72
2021/12/05 03:29:57;;;;;;;0.00;0.00;;;;;;;;;;1736783;28;20692;-72
2021/12/05 03:30:49;;;;;;;0.00;0.00;;;;;;;;;;1736682;28;20289;-72
2021/12/05 03:31:40;;;;;;;0.00;0.00;;;;;;;;;;1736522;28;20222;-72
2021/12/05 03:32:32;;;;;;;0.00;0.00;;;;;;;;;;1737671;28;20306;-72
2021/12/05 03:33:24;;;;;;;0.00;0.00;;;;;;;;;;1736024;28;20232;-71
2021/12/05 03:34:17;;;;;;;0.00;0.00;;;;;;;;;;1737217;28;20203;-71
2021/12/05 03:35:10;;;;;;;0.00;0.00;;;;;;;;;;1736458;28;20657;-71
2021/12/05 03:36:02;;;;;;;0.00;0.00;;;;;;;;;;1736764;28;20611;-71
2021/12/05 03:36:55;;;;;;;0.00;0.00;;;;;;;;;;1736331;28;20258;-72
2021/12/05 03:37:48;;;;;;;0.00;0.00;;;;;;;;;;1737704;28;20215;-72
2021/12/05 03:38:40;;;;;;;0.10;0.10;;;;;;;;;;1736907;28;20272;-72
2021/12/05 03:39:33;;;;;;;0.10;0.10;;;;;;;;;;1737418;28;20191;-72
2021/12/05 03:40:26;;;;;;;0.00;0.00;;;;;;;;;;1734920;28;20464;-72
2021/12/05 03:41:19;;;;;;;0.10;0.10;;;;;;;;;;1737336;28;20218;-72
2021/12/05 03:42:11;;;;;;;0.00;0.00;;;;;;;;;;1736856;28;20210;-72
2021/12/05 03:43:04;;;;;;;0.00;0.00;;;;;;;;;;1737681;28;20202;-72
2021/12/05 03:43:56;;;;;;;0.00;0.00;;;;;;;;;;1736357;28;20906;-72
2021/12/05 03:44:49;;;;;;;0.00;0.00;;;;;;;;;;1735388;28;20321;-72
2021/12/05 03:45:41;;;;;;;0.00;0.00;;;;;;;;;;1735483;28;20235;-72
2021/12/05 03:46:34;;;;;;;0.00;0.00;;;;;;;;;;1736111;28;20409;-72
2021/12/05 03:47:28;;;;;;;0.00;0.00;;;;;;;;;;1737687;28;20625;-72
2021/12/05 03:48:21;;;;;;;0.00;0.00;;;;;;;;;;1733566;28;20231;-72
2021/12/05 03:49:12;;;;;;;0.00;0.00;;;;;;;;;;1733390;28;20215;-72
2021/12/05 03:50:07;;;;;;;0.00;0.00;;;;;;;;;;1732059;28;20712;-72
2021/12/05 03:50:59;;;;;;;0.00;0.00;;;;;;;;;;1732425;28;20280;-72
2021/12/05 03:51:52;;;;;;;0.00;0.00;;;;;;;;;;1731628;28;20212;-72
2021/12/05 03:52:43;;;;;;;0.00;0.00;;;;;;;;;;1732433;28;20257;-72
2021/12/05 03:53:35;;;;;;;0.00;0.00;;;;;;;;;;1732640;28;20207;-72
2021/12/05 03:54:27;;;;;;;0.10;0.10;;;;;;;;;;1733153;28;20852;-72
2021/12/05 03:55:21;;;;;;;0.00;0.00;;;;;;;;;;1732965;28;20204;-72
2021/12/05 03:56:12;;;;;;;0.00;0.00;;;;;;;;;;1732292;28;20235;-72
2021/12/05 03:57:05;;;;;;;0.10;0.10;;;;;;;;;;1732069;28;20730;-72
2021/12/05 03:57:57;;;;;;;0.00;0.00;;;;;;;;;;1732170;28;20656;-72
2021/12/05 03:58:49;;;;;;;0.00;0.00;;;;;;;;;;1731533;28;20537;-72
2021/12/05 03:59:40;;;;;;;0.00;0.00;;;;;;;;;;1733047;28;20262;-72
2021/12/05 04:00:38;;;;;;;0.00;0.00;;;;;;;;;;1731465;28;20202;-72
2021/12/05 04:01:29;;;;;;;0.00;0.00;;;;;;;;;;1732660;28;20321;-72
2021/12/05 04:02:21;;;;;;;0.05;0.05;;;;;;;;;;1731324;28;20585;-72
2021/12/05 04:03:14;;;;;;;0.00;0.00;;;;;;;;;;1732377;28;20640;-72
2021/12/05 04:04:07;;;;;;;0.00;0.00;;;;;;;;;;1730855;28;20578;-72
2021/12/05 04:04:58;;;;;;;0.00;0.00;;;;;;;;;;1732223;28;20203;-72
2021/12/05 04:05:50;;;;;;;0.00;0.00;;;;;;;;;;1732294;28;20242;-72
2021/12/05 04:06:42;;;;;;;0.00;0.00;;;;;;;;;;1731985;28;20500;-72
2021/12/05 04:07:34;;;;;;;0.00;0.00;;;;;;;;;;1729725;28;20196;-72
2021/12/05 04:08:27;;;;;;;0.00;0.00;;;;;;;;;;1732213;28;20621;-72
2021/12/05 04:09:20;;;;;;;0.00;0.00;;;;;;;;;;1732846;28;20568;-72
2021/12/05 04:10:12;;;;;;;0.08;0.08;;;;;;;;;;1732132;28;20330;-72
2021/12/05 04:11:07;;;;;;;0.00;0.00;;;;;;;;;;1731963;28;20233;-72
2021/12/05 04:12:01;;;;;;;0.00;0.00;;;;;;;;;;1732673;28;20200;-72
2021/12/05 04:12:53;;;;;;;0.10;0.10;;;;;;;;;;1732822;28;20208;-72
2021/12/05 04:13:45;;;;;;;0.00;0.00;;;;;;;;;;1732004;28;20215;-72
2021/12/05 04:14:38;;;;;;;0.00;0.00;;;;;;;;;;1732808;28;20649;-72
2021/12/05 04:15:29;;;;;;;0.00;0.00;;;;;;;;;;1731064;28;20581;-72
2021/12/05 04:16:22;;;;;;;0.00;0.00;;;;;;;;;;1732370;28;20200;-72
2021/12/05 04:17:14;;;;;;;0.05;0.05;;;;;;;;;;1731885;28;20199;-72
2021/12/05 04:18:06;;;;;;;0.10;0.10;;;;;;;;;;1728137;28;20239;-72
2021/12/05 04:18:57;;;;;;;0.00;0.00;;;;;;;;;;1731812;28;20222;-72
2021/12/05 04:19:50;;;;;;;0.00;0.00;;;;;;;;;;1732655;28;20207;-72
2021/12/05 04:20:41;;;;;;;0.00;0.00;;;;;;;;;;1730967;28;20300;-72
2021/12/05 04:21:35;;;;;;;0.00;0.00;;;;;;;;;;1731539;28;20196;-72
2021/12/05 04:22:27;;;;;;;0.00;0.00;;;;;;;;;;1731907;28;20257;-72
2021/12/05 04:23:19;;;;;;;0.00;0.00;;;;;;;;;;1731642;28;20207;-72
2021/12/05 04:24:13;;;;;;;0.00;0.00;;;;;;;;;;1732701;28;20204;-72
2021/12/05 04:25:10;;;;;;;0.00;0.00;;;;;;;;;;1732359;28;20298;-72
2021/12/05 04:26:01;;;;;;;0.00;0.00;;;;;;;;;;1731856;28;20231;-72
2021/12/05 04:26:54;;;;;;;0.00;0.00;;;;;;;;;;1731836;28;20238;-72
2021/12/05 04:27:47;;;;;;;0.00;0.00;;;;;;;;;;1732615;28;20204;-72
2021/12/05 04:28:39;;;;;;;0.00;0.00;;;;;;;;;;1731759;28;20207;-72
2021/12/05 04:29:32;;;;;;;0.00;0.00;;;;;;;;;;1732728;28;20825;-72
2021/12/05 04:30:26;;;;;;;0.10;0.10;;;;;;;;;;1731857;28;20660;-73
2021/12/05 04:31:20;;;;;;;0.10;0.10;;;;;;;;;;1729980;28;20227;-72
2021/12/05 04:32:12;;;;;;;0.00;0.00;;;;;;;;;;1730770;28;20203;-72
2021/12/05 04:33:04;;;;;;;0.00;0.00;;;;;;;;;;1732502;28;20195;-72
2021/12/05 04:33:56;;;;;;;0.00;0.00;;;;;;;;;;1730575;28;20250;-72
2021/12/05 04:34:47;;;;;;;0.00;0.00;;;;;;;;;;1732914;28;20629;-72
2021/12/05 04:35:40;;;;;;;0.00;0.00;;;;;;;;;;1730854;28;20652;-73
2021/12/05 04:36:32;;;;;;;0.00;0.00;;;;;;;;;;1732104;28;20562;-73
2021/12/05 04:37:24;;;;;;;0.00;0.00;;;;;;;;;;1731428;28;20195;-72
2021/12/05 04:38:16;;;;;;;0.00;0.00;;;;;;;;;;1731689;28;20207;-72
2021/12/05 04:39:10;;;;;;;0.00;0.00;;;;;;;;;;1732077;28;20215;-72
2021/12/05 04:40:03;;;;;;;0.00;0.00;;;;;;;;;;1731400;28;20682;-72
2021/12/05 04:40:55;;;;;;;0.00;0.00;;;;;;;;;;1732324;28;20243;-72
2021/12/05 04:41:47;;;;;;;0.00;0.00;;;;;;;;;;1732122;28;20226;-72
2021/12/05 04:42:40;;;;;;;0.00;0.00;;;;;;;;;;1732865;28;20211;-72
2021/12/05 04:43:37;;;;;;;0.00;0.00;;;;;;;;;;1731042;28;20203;-72
2021/12/05 04:44:28;;;;;;;0.00;0.00;;;;;;;;;;1729844;28;20258;-72
2021/12/05 04:45:22;;;;;;;0.10;0.10;;;;;;;;;;1732348;28;20211;-72
2021/12/05 04:46:15;;;;;;;0.05;0.05;;;;;;;;;;1731159;28;20223;-72
2021/12/05 04:47:07;;;;;;;0.00;0.00;;;;;;;;;;1731888;28;20680;-72
2021/12/05 04:47:58;;;;;;;0.00;0.00;;;;;;;;;;1732757;28;20219;-72
2021/12/05 04:48:52;;;;;;;0.00;0.00;;;;;;;;;;1730918;28;20199;-72
2021/12/05 04:49:44;;;;;;;0.00;0.00;;;;;;;;;;1732686;28;20587;-72
2021/12/05 04:50:37;;;;;;;0.00;0.00;;;;;;;;;;1730425;28;20196;-72
2021/12/05 04:51:31;;;;;;;0.00;0.00;;;;;;;;;;1732801;28;20203;-72
2021/12/05 04:52:23;;;;;;;0.00;0.00;;;;;;;;;;1730541;28;20200;-72
2021/12/05 04:53:14;;;;;;;0.00;0.00;;;;;;;;;;1731979;28;20204;-72
2021/12/05 04:54:07;;;;;;;0.00;0.00;;;;;;;;;;1731496;28;20242;-72
2021/12/05 04:54:59;;;;;;;0.00;0.00;;;;;;;;;;1731763;28;20200;-72
2021/12/05 04:55:51;;;;;;;0.00;0.00;;;;;;;;;;1731590;28;20235;-72
2021/12/05 04:56:44;;;;;;;0.00;0.00;;;;;;;;;;1731853;28;20622;-72
2021/12/05 04:57:36;;;;;;;0.00;0.00;;;;;;;;;;1732832;28;20557;-72
2021/12/05 04:58:29;;;;;;;0.10;0.10;;;;;;;;;;1731306;28;20534;-72
2021/12/05 04:59:24;;;;;;;0.00;0.00;;;;;;;;;;1732571;28;20705;-72
2021/12/05 05:00:17;;;;;;;0.30;0.00;;;;;;;;;;1731362;28;20223;-72
2021/12/05 05:01:09;;;;;;;0.00;0.00;;;;;;;;;;1731609;28;20227;-72
2021/12/05 05:02:00;;;;;;;0.00;0.00;;;;;;;;;;1731246;28;20211;-72
2021/12/05 05:02:53;;;;;;;0.00;0.00;;;;;;;;;;1732380;28;20799;-72
2021/12/05 05:03:44;;;;;;;0.05;0.05;;;;;;;;;;1732159;28;20212;-72
2021/12/05 05:04:42;;;;;;;0.00;0.00;;;;;;;;;;1731722;28;20594;-72
2021/12/05 05:05:39;;;;;;;0.00;0.00;;;;;;;;;;1730681;28;20299;-72
2021/12/05 05:06:31;;;;;;;0.00;0.00;;;;;;;;;;1732479;28;20211;-72
2021/12/05 05:07:26;;;;;;;0.00;0.00;;;;;;;;;;1730782;28;20291;-72
2021/12/05 05:08:19;;;;;;;0.00;0.00;;;;;;;;;;1731960;28;20678;-72
2021/12/05 05:09:10;;;;;;;0.10;0.10;;;;;;;;;;1732084;28;20280;-72
2021/12/05 05:10:06;;;;;;;0.00;0.00;;;;;;;;;;1731346;28;20199;-72
2021/12/05 05:10:57;;;;;;;0.00;0.00;;;;;;;;;;1727671;28;20231;-72
2021/12/05 05:11:50;;;;;;;0.10;0.10;;;;;;;;;;1731997;28;20264;-72
2021/12/05 05:12:41;;;;;;;0.00;0.00;;;;;;;;;;1732424;28;20218;-73
2021/12/05 05:13:35;;;;;;;0.10;0.10;;;;;;;;;;1731720;28;20231;-72
2021/12/05 05:14:26;;;;;;;0.00;0.00;;;;;;;;;;1732590;28;20238;-72
2021/12/05 05:15:22;;;;;;;0.00;0.00;;;;;;;;;;1732124;28;20203;-72
2021/12/05 05:16:15;;;;;;;0.00;0.00;;;;;;;;;;1731585;28;20242;-72
2021/12/05 05:17:07;;;;;;;0.00;0.00;;;;;;;;;;1731446;28;20604;-72
2021/12/05 05:17:59;;;;;;;0.00;0.00;;;;;;;;;;1727939;28;20220;-72
2021/12/05 05:18:54;;;;;;;0.00;0.00;;;;;;;;;;1730174;28;20641;-72
2021/12/05 05:19:50;;;;;;;0.00;0.00;;;;;;;;;;1726243;28;20211;-72
2021/12/05 05:20:50;;;;;;;0.00;0.00;;;;;;;;;;1731851;28;20688;-72
2021/12/05 05:21:47;;;;;;;0.00;0.00;;;;;;;;;;1730898;28;20247;-72
2021/12/05 05:22:45;;;;;;;0.00;0.00;;;;;;;;;;1728895;28;20196;-72
2021/12/05 05:23:52;;;;;;;0.00;0.00;;;;;;;;;;1730931;28;20585;-72
2021/12/05 05:39:00;;;;;;;0.00;0.00;;;;;;;;;;1720844;28;20662;-72
2021/12/05 05:39:29;;;;;;;0.10;0.10;;;;;;;;;;1731860;28;20198;-72
2021/12/05 05:44:27;;;;;;;0.00;0.00;;;;;;;;;;1717123;28;20203;-72
2021/12/05 05:46:37;;;;;;;0.00;0.00;;;;;;;;;;1710386;28;20304;-72
2021/12/05 05:47:33;;;;;;;0.00;0.00;;;;;;;;;;1731379;28;20188;-72
2021/12/05 05:48:33;;;;;;;0.00;0.00;;;;;;;;;;1731325;28;20199;-72
2021/12/05 05:49:33;;;;;;;0.00;0.00;;;;;;;;;;1732364;28;20617;-71
2021/12/05 05:50:24;;;;;;;0.00;0.00;;;;;;;;;;1731309;28;20588;-72
2021/12/05 05:51:16;;;;;;;0.00;0.00;;;;;;;;;;1732332;28;20207;-72
2021/12/05 05:52:09;;;;;;;0.03;0.03;;;;;;;;;;1731206;28;20204;-72
2021/12/05 05:53:00;;;;;;;0.10;0.10;;;;;;;;;;1731507;28;20564;-72
2021/12/05 05:53:52;;;;;;;0.00;0.00;;;;;;;;;;1731683;28;20204;-72
2021/12/05 05:54:46;;;;;;;0.00;0.00;;;;;;;;;;1729622;28;20204;-72
2021/12/05 05:55:38;;;;;;;0.00;0.00;;;;;;;;;;1730660;28;20218;-71
2021/12/05 05:56:32;;;;;;;0.00;0.00;;;;;;;;;;1732409;28;20245;-71
2021/12/05 05:57:26;;;;;;;0.00;0.00;;;;;;;;;;1732038;28;20223;-71
2021/12/05 05:58:21;;;;;;;0.00;0.00;;;;;;;;;;1730973;28;20230;-71
2021/12/05 05:59:18;;;;;;;0.00;0.00;;;;;;;;;;1731338;28;20645;-71
2021/12/05 06:00:15;;;;;;;0.00;0.00;;;;;;;;;;1732364;28;20195;-71
2021/12/05 06:01:17;;;;;;;0.00;0.00;;;;;;;;;;1731208;28;20231;-72
2021/12/05 06:03:22;;;;;;;0.10;0.10;;;;;;;;;;1730995;28;20615;-72
2021/12/05 06:04:13;;;;;;;0.00;0.00;;;;;;;;;;1730256;28;20211;-72
2021/12/05 06:05:11;;;;;;;0.00;0.00;;;;;;;;;;1724899;28;20212;-72
2021/12/05 06:06:05;;;;;;;0.10;0.10;;;;;;;;;;1731173;28;20243;-72
2021/12/05 06:06:57;;;;;;;0.00;0.00;;;;;;;;;;1731529;28;20203;-72
2021/12/05 06:07:48;;;;;;;0.03;0.03;;;;;;;;;;1732416;28;20511;-72
2021/12/05 06:08:41;;;;;;;0.00;0.00;;;;;;;;;;1731991;28;20207;-71
2021/12/05 06:09:32;;;;;;;0.00;0.00;;;;;;;;;;1732076;28;20545;-71
2021/12/05 06:10:25;;;;;;;0.00;0.00;;;;;;;;;;1730870;28;20543;-72
2021/12/05 06:11:18;;;;;;;0.00;0.00;;;;;;;;;;1731367;28;20561;-72
2021/12/05 06:12:09;;;;;;;0.00;0.00;;;;;;;;;;1731496;28;20203;-72
2021/12/05 06:13:01;;;;;;;0.10;0.10;;;;;;;;;;1732463;28;20203;-72
2021/12/05 06:13:53;;;;;;;0.00;0.00;;;;;;;;;;1731770;28;20584;-71
2021/12/05 06:14:45;;;;;;;0.00;0.00;;;;;;;;;;1732421;28;20204;-72
2021/12/05 06:15:36;;;;;;;0.00;0.00;;;;;;;;;;1730740;28;20311;-72
2021/12/05 06:16:30;;;;;;;0.00;0.00;;;;;;;;;;1731413;28;20199;-72
2021/12/05 06:17:21;;;;;;;0.00;0.00;;;;;;;;;;1731382;28;20545;-71
2021/12/05 06:18:13;;;;;;;0.00;0.00;;;;;;;;;;1731368;28;20771;-71
2021/12/05 06:19:05;;;;;;;0.00;0.00;;;;;;;;;;1730345;28;20226;-71
2021/12/05 06:19:58;;;;;;;0.03;0.03;;;;;;;;;;1725218;28;20258;-72
2021/12/05 06:20:50;;;;;;;0.00;0.00;;;;;;;;;;1731146;28;20555;-72
2021/12/05 06:21:42;;;;;;;0.00;0.00;;;;;;;;;;1730970;28;20235;-72
2021/12/05 06:22:33;;;;;;;0.00;0.00;;;;;;;;;;1731251;28;20204;-71
2021/12/05 06:23:25;;;;;;;0.00;0.00;;;;;;;;;;1731702;28;20219;-71
2021/12/05 06:24:17;;;;;;;0.00;0.00;;;;;;;;;;1731985;28;20215;-71
2021/12/05 06:25:14;;;;;;;0.00;0.00;;;;;;;;;;1731739;28;20265;-71
2021/12/05 06:26:07;;;;;;;0.00;0.00;;;;;;;;;;1730786;28;20236;-71
2021/12/05 06:27:00;;;;;;;0.00;0.00;;;;;;;;;;1731667;28;20264;-71
2021/12/05 06:27:53;;;;;;;0.10;0.10;;;;;;;;;;1731526;28;20215;-71
2021/12/05 06:28:46;;;;;;;0.00;0.00;;;;;;;;;;1730584;28;20395;-71
2021/12/05 06:29:45;;;;;;;0.00;0.00;;;;;;;;;;1732234;28;20199;-71
2021/12/05 06:30:46;;;;;;;0.00;0.00;;;;;;;;;;1731056;28;20540;-71
2021/12/05 06:31:55;;;;;;;0.00;0.00;;;;;;;;;;1727445;28;20642;-71
2021/12/05 06:37:35;;;;;;;0.00;0.00;;;;;;;;;;1724783;28;20262;-72
2021/12/05 06:39:44;;;;;;;0.00;0.00;;;;;;;;;;1725183;28;20507;-72
2021/12/05 06:40:55;;;;;;;0.00;0.00;;;;;;;;;;1722754;28;20278;-73
2021/12/05 06:43:06;;;;;;;0.00;0.00;;;;;;;;;;1719174;28;20259;-72
2021/12/05 06:46:22;;;;;;;0.00;0.00;;;;;;;;;;1724235;28;20290;-72
2021/12/05 06:47:21;;;;;;;0.00;0.00;;;;;;;;;;1724055;28;20197;-72
2021/12/05 06:48:12;;;;;;;0.10;0.10;;;;;;;;;;1725137;28;20279;-72
2021/12/05 06:49:04;;;;;;;0.00;0.00;;;;;;;;;;1723720;28;20719;-72
2021/12/05 06:49:55;;;;;;;0.00;0.00;;;;;;;;;;1725195;28;20212;-72
2021/12/05 06:50:48;;;;;;;0.00;0.00;;;;;;;;;;1719680;28;20331;-72
2021/12/05 06:51:39;;;;;;;0.03;0.03;;;;;;;;;;1724707;28;20208;-72
2021/12/05 06:52:31;;;;;;;0.00;0.00;;;;;;;;;;1723968;28;20231;-72
2021/12/05 06:53:22;;;;;;;0.00;0.00;;;;;;;;;;1724115;28;20295;-71
2021/12/05 06:54:15;;;;;;;0.00;0.00;;;;;;;;;;1725297;28;20592;-71
2021/12/05 06:55:06;;;;;;;0.00;0.00;;;;;;;;;;1721065;28;20688;-71
2021/12/05 06:55:58;;;;;;;0.00;0.00;;;;;;;;;;1724145;28;20639;-72
2021/12/05 06:56:50;;;;;;;0.00;0.00;;;;;;;;;;1723299;28;20204;-72
2021/12/05 06:57:42;;;;;;;0.00;0.00;;;;;;;;;;1725205;28;20213;-72
2021/12/05 06:58:34;;;;;;;0.00;0.00;;;;;;;;;;1723119;28;20259;-72
2021/12/05 06:59:26;;;;;;;0.00;0.00;;;;;;;;;;1725172;28;20670;-72
2021/12/05 07:00:19;;;;;;;0.00;0.00;;;;;;;;;;1724264;28;20208;-72
2021/12/05 07:01:12;;;;;;;0.00;0.00;;;;;;;;;;1723921;28;20749;-71
2021/12/05 07:02:04;;;;;;;0.00;0.00;;;;;;;;;;1721910;28;20213;-71
2021/12/05 07:02:57;;;;;;;0.00;0.00;;;;;;;;;;1724312;28;20208;-71
2021/12/05 07:03:50;;;;;;;0.00;0.00;;;;;;;;;;1724684;28;20484;-71
2021/12/05 07:04:59;;;;;;;0.00;0.00;;;;;;;;;;1724640;28;20207;-71
2021/12/05 07:05:55;;;;;;;0.00;0.00;;;;;;;;;;1716507;28;20253;-72
2021/12/05 07:06:47;;;;;;;0.00;0.00;;;;;;;;;;1717567;28;20689;-71
2021/12/05 07:07:41;;;;;;;0.00;0.00;;;;;;;;;;1718231;28;20215;-72
2021/12/05 07:08:35;;;;;;;0.00;0.00;;;;;;;;;;1717099;28;20342;-72
2021/12/05 07:09:27;;;;;;;0.00;0.00;;;;;;;;;;1718511;28;20303;-72
2021/12/05 07:10:21;;;;;;;0.00;0.00;;;;;;;;;;1717609;28;20205;-72
2021/12/05 07:11:19;;;;;;;0.00;0.00;;;;;;;;;;1717781;28;20228;-71
2021/12/05 07:12:46;;;;;;;0.00;0.00;;;;;;;;;;1717528;28;20271;-72
2021/12/05 07:14:55;;;;;;;0.00;0.00;;;;;;;;;;1715069;28;20205;-72
2021/12/05 07:15:50;;;;;;;0.10;0.10;;;;;;;;;;1713109;28;20249;-72
2021/12/05 07:16:49;;;;;;;0.00;0.00;;;;;;;;;;1716921;28;20253;-72
2021/12/05 07:19:13;;;;;;;0.00;0.00;;;;;;;;;;1716203;28;20232;-72
2021/12/05 07:20:35;;;;;;;0.00;0.00;;;;;;;;;;1712821;28;20588;-72
2021/12/05 07:21:37;;;;;;;0.05;0.05;;;;;;;;;;1717903;28;20563;-73
2021/12/05 07:22:39;;;;;;;0.00;0.00;;;;;;;;;;1723840;28;20375;-73
2021/12/05 07:23:45;;;;;;;0.00;0.00;;;;;;;;;;1724037;28;20220;-72
2021/12/05 07:24:44;;;;;;;0.03;0.03;;;;;;;;;;1726314;28;20214;-73
2021/12/05 07:25:45;;;;;;;0.00;0.00;;;;;;;;;;1718487;28;20583;-73
2021/12/05 07:26:52;;;;;;;0.00;0.00;;;;;;;;;;1719314;28;20236;-73
2021/12/05 07:40:28;;;;;;;0.10;0.10;;;;;;;;;;1727881;28;20191;-73
2021/12/05 07:41:35;;;;;;;0.00;0.00;;;;;;;;;;1732793;28;20298;-73
2021/12/05 07:42:28;;;;;;;0.00;0.00;;;;;;;;;;1731712;28;20681;-72
2021/12/05 07:43:20;;;;;;;0.00;0.00;;;;;;;;;;1732105;28;20219;-72
2021/12/05 07:44:12;;;;;;;0.00;0.00;;;;;;;;;;1732610;28;20195;-72
2021/12/05 07:45:06;;;;;;;0.00;0.00;;;;;;;;;;1732226;28;20700;-72
2021/12/05 07:46:05;;;;;;;0.00;0.00;;;;;;;;;;1731941;28;20258;-72
2021/12/05 07:46:57;;;;;;;0.00;0.00;;;;;;;;;;1731685;28;20254;-72
2021/12/05 07:47:51;;;;;;;0.00;0.00;;;;;;;;;;1732995;28;20199;-72
2021/12/05 07:48:46;;;;;;;0.00;0.00;;;;;;;;;;1732115;28;20254;-72